sensor_id;sensor_type;location;lat;lon;timestamp;P1;durP1;ratioP1;P2;durP2;ratioP2
61638;SDS011;47544;52.484;4.658;2023-06-26T00:00:01;5.95;;;4.70;;
61638;SDS011;47544;52.484;4.658;2023-06-26T00:00:17;5.75;;;4.68;;
61638;SDS011;47544;52.484;4.658;2023-06-26T00:00:30;6.53;;;4.53;;
61638;SDS011;47544;52.484;4.658;2023-06-26T00:00:43;6.90;;;4.70;;
61638;SDS011;47544;52.484;4.658;2023-06-26T00:00:56;6.13;;;4.82;;
61638;SDS011;47544;52.484;4.658;2023-06-26T00:01:07;6.05;;;5.00;;
61638;SDS011;47544;52.484;4.658;2023-06-26T00:01:18;6.40;;;5.05;;
61638;SDS011;47544;52.484;4.658;2023-06-26T00:01:31;6.53;;;4.80;;
61638;SDS011;47544;52.484;4.658;2023-06-26T00:01:44;6.45;;;4.85;;
61638;SDS011;47544;52.484;4.658;2023-06-26T00:01:55;6.45;;;4.80;;
61638;SDS011;47544;52.484;4.658;2023-06-26T00:02:06;6.18;;;4.80;;
61638;SDS011;47544;52.484;4.658;2023-06-26T00:02:18;6.07;;;4.68;;
61638;SDS011;47544;52.484;4.658;2023-06-26T00:02:29;6.30;;;4.72;;
61638;SDS011;47544;52.484;4.658;2023-06-26T00:02:43;6.03;;;4.57;;
61638;SDS011;47544;52.484;4.658;2023-06-26T00:02:58;5.55;;;4.50;;
61638;SDS011;47544;52.484;4.658;2023-06-26T00:03:10;5.85;;;4.65;;
61638;SDS011;47544;52.484;4.658;2023-06-26T00:03:29;6.47;;;4.50;;
61638;SDS011;47544;52.484;4.658;2023-06-26T00:03:40;6.22;;;4.05;;
61638;SDS011;47544;52.484;4.658;2023-06-26T00:03:52;6.13;;;4.15;;
61638;SDS011;47544;52.484;4.658;2023-06-26T00:04:03;6.10;;;4.30;;
61638;SDS011;47544;52.484;4.658;2023-06-26T00:04:14;5.70;;;4.05;;
61638;SDS011;47544;52.484;4.658;2023-06-26T00:04:26;6.38;;;4.32;;
61638;SDS011;47544;52.484;4.658;2023-06-26T00:04:38;7.03;;;4.57;;
61638;SDS011;47544;52.484;4.658;2023-06-26T00:04:52;7.00;;;4.72;;
61638;SDS011;47544;52.484;4.658;2023-06-26T00:05:04;6.07;;;4.80;;
61638;SDS011;47544;52.484;4.658;2023-06-26T00:05:16;6.45;;;4.80;;
61638;SDS011;47544;52.484;4.658;2023-06-26T00:05:27;7.43;;;4.85;;
61638;SDS011;47544;52.484;4.658;2023-06-26T00:05:38;7.72;;;5.20;;
61638;SDS011;47544;52.484;4.658;2023-06-26T00:05:51;6.10;;;5.05;;
61638;SDS011;47544;52.484;4.658;2023-06-26T00:06:02;6.40;;;4.78;;
61638;SDS011;47544;52.484;4.658;2023-06-26T00:06:13;7.10;;;4.65;;
61638;SDS011;47544;52.484;4.658;2023-06-26T00:06:25;7.75;;;4.85;;
61638;SDS011;47544;52.484;4.658;2023-06-26T00:06:46;7.20;;;4.88;;
61638;SDS011;47544;52.484;4.658;2023-06-26T00:07:03;5.90;;;4.80;;
61638;SDS011;47544;52.484;4.658;2023-06-26T00:07:19;7.70;;;4.72;;
61638;SDS011;47544;52.484;4.658;2023-06-26T00:07:31;8.23;;;5.00;;
61638;SDS011;47544;52.484;4.658;2023-06-26T00:07:44;7.05;;;5.07;;
61638;SDS011;47544;52.484;4.658;2023-06-26T00:07:59;7.15;;;5.22;;
61638;SDS011;47544;52.484;4.658;2023-06-26T00:08:13;6.10;;;5.00;;
61638;SDS011;47544;52.484;4.658;2023-06-26T00:08:25;6.10;;;5.05;;
61638;SDS011;47544;52.484;4.658;2023-06-26T00:08:53;6.05;;;5.00;;
61638;SDS011;47544;52.484;4.658;2023-06-26T00:09:08;7.50;;;5.20;;
61638;SDS011;47544;52.484;4.658;2023-06-26T00:09:19;8.25;;;5.40;;
61638;SDS011;47544;52.484;4.658;2023-06-26T00:09:30;8.00;;;5.50;;
61638;SDS011;47544;52.484;4.658;2023-06-26T00:09:41;7.50;;;5.45;;
61638;SDS011;47544;52.484;4.658;2023-06-26T00:09:53;7.55;;;5.55;;
61638;SDS011;47544;52.484;4.658;2023-06-26T00:10:10;7.15;;;5.65;;
61638;SDS011;47544;52.484;4.658;2023-06-26T00:10:25;6.35;;;5.13;;
61638;SDS011;47544;52.484;4.658;2023-06-26T00:10:36;6.57;;;4.97;;
61638;SDS011;47544;52.484;4.658;2023-06-26T00:10:48;7.03;;;5.15;;
61638;SDS011;47544;52.484;4.658;2023-06-26T00:11:02;6.93;;;4.75;;
61638;SDS011;47544;52.484;4.658;2023-06-26T00:11:13;6.65;;;4.70;;
61638;SDS011;47544;52.484;4.658;2023-06-26T00:11:25;6.85;;;5.00;;
61638;SDS011;47544;52.484;4.658;2023-06-26T00:11:38;7.90;;;5.18;;
61638;SDS011;47544;52.484;4.658;2023-06-26T00:11:50;7.93;;;5.25;;
61638;SDS011;47544;52.484;4.658;2023-06-26T00:12:02;7.30;;;5.15;;
61638;SDS011;47544;52.484;4.658;2023-06-26T00:12:13;6.25;;;4.90;;
61638;SDS011;47544;52.484;4.658;2023-06-26T00:12:25;6.35;;;4.90;;
61638;SDS011;47544;52.484;4.658;2023-06-26T00:12:36;7.53;;;5.28;;
61638;SDS011;47544;52.484;4.658;2023-06-26T00:12:47;7.43;;;5.30;;
61638;SDS011;47544;52.484;4.658;2023-06-26T00:12:59;7.10;;;5.38;;
61638;SDS011;47544;52.484;4.658;2023-06-26T00:13:14;7.35;;;5.63;;
61638;SDS011;47544;52.484;4.658;2023-06-26T00:13:25;7.10;;;5.63;;
61638;SDS011;47544;52.484;4.658;2023-06-26T00:13:37;6.70;;;5.47;;
61638;SDS011;47544;52.484;4.658;2023-06-26T00:13:48;7.63;;;5.20;;
61638;SDS011;47544;52.484;4.658;2023-06-26T00:13:59;7.63;;;5.25;;
61638;SDS011;47544;52.484;4.658;2023-06-26T00:14:11;8.77;;;5.50;;
61638;SDS011;47544;52.484;4.658;2023-06-26T00:14:39;7.13;;;5.72;;
61638;SDS011;47544;52.484;4.658;2023-06-26T00:14:58;7.00;;;5.75;;
61638;SDS011;47544;52.484;4.658;2023-06-26T00:15:14;7.40;;;5.43;;
61638;SDS011;47544;52.484;4.658;2023-06-26T00:15:29;7.38;;;4.97;;
61638;SDS011;47544;52.484;4.658;2023-06-26T00:15:45;7.57;;;4.90;;
61638;SDS011;47544;52.484;4.658;2023-06-26T00:16:00;7.28;;;4.93;;
61638;SDS011;47544;52.484;4.658;2023-06-26T00:16:22;7.70;;;5.00;;
61638;SDS011;47544;52.484;4.658;2023-06-26T00:16:38;8.63;;;5.38;;
61638;SDS011;47544;52.484;4.658;2023-06-26T00:16:50;8.30;;;5.80;;
61638;SDS011;47544;52.484;4.658;2023-06-26T00:17:02;7.57;;;5.85;;
61638;SDS011;47544;52.484;4.658;2023-06-26T00:17:13;7.13;;;5.50;;
61638;SDS011;47544;52.484;4.658;2023-06-26T00:17:26;7.00;;;5.15;;
61638;SDS011;47544;52.484;4.658;2023-06-26T00:17:37;6.80;;;5.07;;
61638;SDS011;47544;52.484;4.658;2023-06-26T00:17:49;7.20;;;5.20;;
61638;SDS011;47544;52.484;4.658;2023-06-26T00:18:18;7.68;;;5.25;;
61638;SDS011;47544;52.484;4.658;2023-06-26T00:18:31;6.78;;;5.10;;
61638;SDS011;47544;52.484;4.658;2023-06-26T00:18:45;7.38;;;5.28;;
61638;SDS011;47544;52.484;4.658;2023-06-26T00:18:57;7.53;;;5.10;;
61638;SDS011;47544;52.484;4.658;2023-06-26T00:19:10;7.40;;;5.05;;
61638;SDS011;47544;52.484;4.658;2023-06-26T00:19:22;7.13;;;4.97;;
61638;SDS011;47544;52.484;4.658;2023-06-26T00:19:33;8.02;;;4.85;;
61638;SDS011;47544;52.484;4.658;2023-06-26T00:19:44;7.80;;;4.82;;
61638;SDS011;47544;52.484;4.658;2023-06-26T00:19:55;7.40;;;5.00;;
61638;SDS011;47544;52.484;4.658;2023-06-26T00:20:07;6.25;;;4.78;;
61638;SDS011;47544;52.484;4.658;2023-06-26T00:20:21;5.43;;;4.10;;
61638;SDS011;47544;52.484;4.658;2023-06-26T00:20:36;5.88;;;4.05;;
61638;SDS011;47544;52.484;4.658;2023-06-26T00:20:47;7.65;;;4.95;;
61638;SDS011;47544;52.484;4.658;2023-06-26T00:20:58;8.13;;;5.35;;
61638;SDS011;47544;52.484;4.658;2023-06-26T00:21:10;7.82;;;5.30;;
61638;SDS011;47544;52.484;4.658;2023-06-26T00:21:21;7.40;;;5.13;;
61638;SDS011;47544;52.484;4.658;2023-06-26T00:21:32;7.57;;;5.50;;
61638;SDS011;47544;52.484;4.658;2023-06-26T00:21:43;6.93;;;5.60;;
61638;SDS011;47544;52.484;4.658;2023-06-26T00:21:58;6.70;;;5.53;;
61638;SDS011;47544;52.484;4.658;2023-06-26T00:22:10;6.45;;;5.18;;
61638;SDS011;47544;52.484;4.658;2023-06-26T00:22:22;6.82;;;5.30;;
61638;SDS011;47544;52.484;4.658;2023-06-26T00:22:36;7.53;;;5.55;;
61638;SDS011;47544;52.484;4.658;2023-06-26T00:22:51;7.07;;;5.43;;
61638;SDS011;47544;52.484;4.658;2023-06-26T00:23:06;6.65;;;5.32;;
61638;SDS011;47544;52.484;4.658;2023-06-26T00:23:20;6.93;;;5.68;;
61638;SDS011;47544;52.484;4.658;2023-06-26T00:23:31;7.38;;;5.88;;
61638;SDS011;47544;52.484;4.658;2023-06-26T00:23:46;7.75;;;5.95;;
61638;SDS011;47544;52.484;4.658;2023-06-26T00:23:59;8.18;;;5.80;;
61638;SDS011;47544;52.484;4.658;2023-06-26T00:24:10;8.02;;;5.78;;
61638;SDS011;47544;52.484;4.658;2023-06-26T00:24:21;8.52;;;5.80;;
61638;SDS011;47544;52.484;4.658;2023-06-26T00:24:32;8.27;;;5.72;;
61638;SDS011;47544;52.484;4.658;2023-06-26T00:24:43;8.15;;;5.60;;
61638;SDS011;47544;52.484;4.658;2023-06-26T00:24:55;7.78;;;5.15;;
61638;SDS011;47544;52.484;4.658;2023-06-26T00:25:06;6.80;;;4.95;;
61638;SDS011;47544;52.484;4.658;2023-06-26T00:25:28;5.97;;;4.65;;
61638;SDS011;47544;52.484;4.658;2023-06-26T00:25:41;6.22;;;4.68;;
61638;SDS011;47544;52.484;4.658;2023-06-26T00:25:52;7.00;;;4.90;;
61638;SDS011;47544;52.484;4.658;2023-06-26T00:26:04;6.53;;;4.78;;
61638;SDS011;47544;52.484;4.658;2023-06-26T00:26:18;7.38;;;5.07;;
61638;SDS011;47544;52.484;4.658;2023-06-26T00:26:29;7.45;;;4.50;;
61638;SDS011;47544;52.484;4.658;2023-06-26T00:26:46;7.60;;;4.60;;
61638;SDS011;47544;52.484;4.658;2023-06-26T00:26:58;7.70;;;5.35;;
61638;SDS011;47544;52.484;4.658;2023-06-26T00:27:09;7.50;;;5.43;;
61638;SDS011;47544;52.484;4.658;2023-06-26T00:27:21;8.32;;;5.20;;
61638;SDS011;47544;52.484;4.658;2023-06-26T00:27:32;8.30;;;5.45;;
61638;SDS011;47544;52.484;4.658;2023-06-26T00:27:43;7.20;;;5.35;;
61638;SDS011;47544;52.484;4.658;2023-06-26T00:27:58;7.53;;;5.13;;
61638;SDS011;47544;52.484;4.658;2023-06-26T00:28:10;7.60;;;5.10;;
61638;SDS011;47544;52.484;4.658;2023-06-26T00:28:22;7.30;;;5.45;;
61638;SDS011;47544;52.484;4.658;2023-06-26T00:28:34;7.53;;;5.90;;
61638;SDS011;47544;52.484;4.658;2023-06-26T00:28:45;7.05;;;5.38;;
61638;SDS011;47544;52.484;4.658;2023-06-26T00:28:56;7.32;;;5.43;;
61638;SDS011;47544;52.484;4.658;2023-06-26T00:29:08;7.18;;;5.53;;
61638;SDS011;47544;52.484;4.658;2023-06-26T00:29:20;7.35;;;5.65;;
61638;SDS011;47544;52.484;4.658;2023-06-26T00:29:33;7.97;;;5.50;;
61638;SDS011;47544;52.484;4.658;2023-06-26T00:29:46;7.57;;;5.28;;
61638;SDS011;47544;52.484;4.658;2023-06-26T00:29:57;6.65;;;5.20;;
61638;SDS011;47544;52.484;4.658;2023-06-26T00:30:09;8.38;;;5.28;;
61638;SDS011;47544;52.484;4.658;2023-06-26T00:30:20;7.72;;;4.53;;
61638;SDS011;47544;52.484;4.658;2023-06-26T00:30:31;6.88;;;4.38;;
61638;SDS011;47544;52.484;4.658;2023-06-26T00:30:58;7.65;;;4.35;;
61638;SDS011;47544;52.484;4.658;2023-06-26T00:31:09;7.70;;;4.30;;
61638;SDS011;47544;52.484;4.658;2023-06-26T00:31:22;6.82;;;4.50;;
61638;SDS011;47544;52.484;4.658;2023-06-26T00:31:33;6.90;;;4.63;;
61638;SDS011;47544;52.484;4.658;2023-06-26T00:31:46;6.75;;;4.68;;
61638;SDS011;47544;52.484;4.658;2023-06-26T00:31:57;9.05;;;5.53;;
61638;SDS011;47544;52.484;4.658;2023-06-26T00:32:08;8.93;;;5.70;;
61638;SDS011;47544;52.484;4.658;2023-06-26T00:32:19;8.70;;;5.47;;
61638;SDS011;47544;52.484;4.658;2023-06-26T00:32:30;7.07;;;5.43;;
61638;SDS011;47544;52.484;4.658;2023-06-26T00:32:49;8.35;;;5.68;;
61638;SDS011;47544;52.484;4.658;2023-06-26T00:33:01;8.07;;;4.95;;
61638;SDS011;47544;52.484;4.658;2023-06-26T00:33:13;7.32;;;4.65;;
61638;SDS011;47544;52.484;4.658;2023-06-26T00:33:24;6.65;;;4.85;;
61638;SDS011;47544;52.484;4.658;2023-06-26T00:33:37;7.38;;;5.70;;
61638;SDS011;47544;52.484;4.658;2023-06-26T00:33:48;7.43;;;5.47;;
61638;SDS011;47544;52.484;4.658;2023-06-26T00:33:59;8.57;;;5.05;;
61638;SDS011;47544;52.484;4.658;2023-06-26T00:34:13;9.15;;;5.05;;
61638;SDS011;47544;52.484;4.658;2023-06-26T00:34:35;6.88;;;5.20;;
61638;SDS011;47544;52.484;4.658;2023-06-26T00:34:47;7.38;;;5.15;;
61638;SDS011;47544;52.484;4.658;2023-06-26T00:34:59;8.90;;;5.15;;
61638;SDS011;47544;52.484;4.658;2023-06-26T00:35:10;8.43;;;5.30;;
61638;SDS011;47544;52.484;4.658;2023-06-26T00:35:21;8.80;;;5.47;;
61638;SDS011;47544;52.484;4.658;2023-06-26T00:35:33;9.57;;;5.60;;
61638;SDS011;47544;52.484;4.658;2023-06-26T00:35:44;9.40;;;5.75;;
61638;SDS011;47544;52.484;4.658;2023-06-26T00:35:55;8.05;;;5.35;;
61638;SDS011;47544;52.484;4.658;2023-06-26T00:36:08;7.60;;;4.55;;
61638;SDS011;47544;52.484;4.658;2023-06-26T00:36:27;8.23;;;4.97;;
61638;SDS011;47544;52.484;4.658;2023-06-26T00:36:40;8.55;;;5.45;;
61638;SDS011;47544;52.484;4.658;2023-06-26T00:36:54;7.80;;;5.10;;
61638;SDS011;47544;52.484;4.658;2023-06-26T00:37:05;7.20;;;5.38;;
61638;SDS011;47544;52.484;4.658;2023-06-26T00:37:17;8.30;;;5.22;;
61638;SDS011;47544;52.484;4.658;2023-06-26T00:37:28;7.78;;;4.80;;
61638;SDS011;47544;52.484;4.658;2023-06-26T00:37:42;6.90;;;4.10;;
61638;SDS011;47544;52.484;4.658;2023-06-26T00:37:55;7.20;;;4.22;;
61638;SDS011;47544;52.484;4.658;2023-06-26T00:38:07;7.97;;;4.85;;
61638;SDS011;47544;52.484;4.658;2023-06-26T00:38:18;9.32;;;5.47;;
61638;SDS011;47544;52.484;4.658;2023-06-26T00:38:29;9.55;;;5.13;;
61638;SDS011;47544;52.484;4.658;2023-06-26T00:38:41;8.27;;;4.82;;
61638;SDS011;47544;52.484;4.658;2023-06-26T00:38:52;7.25;;;5.00;;
61638;SDS011;47544;52.484;4.658;2023-06-26T00:39:03;7.85;;;5.10;;
61638;SDS011;47544;52.484;4.658;2023-06-26T00:39:16;7.88;;;5.30;;
61638;SDS011;47544;52.484;4.658;2023-06-26T00:39:27;7.93;;;5.18;;
61638;SDS011;47544;52.484;4.658;2023-06-26T00:39:40;7.25;;;5.45;;
61638;SDS011;47544;52.484;4.658;2023-06-26T00:39:55;7.47;;;5.35;;
61638;SDS011;47544;52.484;4.658;2023-06-26T00:40:09;7.22;;;5.55;;
61638;SDS011;47544;52.484;4.658;2023-06-26T00:40:20;7.00;;;5.55;;
61638;SDS011;47544;52.484;4.658;2023-06-26T00:40:34;7.38;;;5.40;;
61638;SDS011;47544;52.484;4.658;2023-06-26T00:40:45;6.78;;;5.00;;
61638;SDS011;47544;52.484;4.658;2023-06-26T00:40:56;5.93;;;4.65;;
61638;SDS011;47544;52.484;4.658;2023-06-26T00:41:08;6.07;;;4.50;;
61638;SDS011;47544;52.484;4.658;2023-06-26T00:41:23;6.38;;;4.50;;
61638;SDS011;47544;52.484;4.658;2023-06-26T00:41:34;7.10;;;4.68;;
61638;SDS011;47544;52.484;4.658;2023-06-26T00:41:48;7.10;;;4.70;;
61638;SDS011;47544;52.484;4.658;2023-06-26T00:42:00;7.57;;;4.70;;
61638;SDS011;47544;52.484;4.658;2023-06-26T00:42:11;7.38;;;4.47;;
61638;SDS011;47544;52.484;4.658;2023-06-26T00:42:22;6.93;;;4.50;;
61638;SDS011;47544;52.484;4.658;2023-06-26T00:42:33;6.22;;;4.40;;
61638;SDS011;47544;52.484;4.658;2023-06-26T00:42:46;7.20;;;4.70;;
61638;SDS011;47544;52.484;4.658;2023-06-26T00:42:57;7.40;;;4.80;;
61638;SDS011;47544;52.484;4.658;2023-06-26T00:43:08;8.18;;;5.20;;
61638;SDS011;47544;52.484;4.658;2023-06-26T00:43:19;8.15;;;5.38;;
61638;SDS011;47544;52.484;4.658;2023-06-26T00:43:30;8.13;;;5.50;;
61638;SDS011;47544;52.484;4.658;2023-06-26T00:43:41;7.18;;;5.30;;
61638;SDS011;47544;52.484;4.658;2023-06-26T00:43:53;6.95;;;4.90;;
61638;SDS011;47544;52.484;4.658;2023-06-26T00:44:04;6.88;;;5.03;;
61638;SDS011;47544;52.484;4.658;2023-06-26T00:44:15;7.03;;;5.35;;
61638;SDS011;47544;52.484;4.658;2023-06-26T00:44:27;7.35;;;5.50;;
61638;SDS011;47544;52.484;4.658;2023-06-26T00:44:38;7.88;;;5.50;;
61638;SDS011;47544;52.484;4.658;2023-06-26T00:44:52;7.30;;;5.35;;
61638;SDS011;47544;52.484;4.658;2023-06-26T00:45:08;7.90;;;5.22;;
61638;SDS011;47544;52.484;4.658;2023-06-26T00:45:19;8.10;;;5.25;;
61638;SDS011;47544;52.484;4.658;2023-06-26T00:45:32;8.68;;;5.50;;
61638;SDS011;47544;52.484;4.658;2023-06-26T00:45:44;8.80;;;5.30;;
61638;SDS011;47544;52.484;4.658;2023-06-26T00:45:56;7.75;;;5.22;;
61638;SDS011;47544;52.484;4.658;2023-06-26T00:46:08;7.25;;;5.22;;
61638;SDS011;47544;52.484;4.658;2023-06-26T00:46:20;7.38;;;4.97;;
61638;SDS011;47544;52.484;4.658;2023-06-26T00:46:32;8.20;;;4.72;;
61638;SDS011;47544;52.484;4.658;2023-06-26T00:46:43;8.50;;;4.50;;
61638;SDS011;47544;52.484;4.658;2023-06-26T00:46:54;8.43;;;5.05;;
61638;SDS011;47544;52.484;4.658;2023-06-26T00:47:05;9.30;;;5.25;;
61638;SDS011;47544;52.484;4.658;2023-06-26T00:47:19;9.00;;;5.53;;
61638;SDS011;47544;52.484;4.658;2023-06-26T00:47:31;7.40;;;5.45;;
61638;SDS011;47544;52.484;4.658;2023-06-26T00:47:42;6.63;;;5.10;;
61638;SDS011;47544;52.484;4.658;2023-06-26T00:47:54;6.32;;;4.95;;
61638;SDS011;47544;52.484;4.658;2023-06-26T00:48:55;7.40;;;4.13;;
61638;SDS011;47544;52.484;4.658;2023-06-26T00:49:10;6.68;;;4.32;;
61638;SDS011;47544;52.484;4.658;2023-06-26T00:49:21;7.05;;;4.15;;
61638;SDS011;47544;52.484;4.658;2023-06-26T00:49:32;6.80;;;4.20;;
61638;SDS011;47544;52.484;4.658;2023-06-26T00:49:43;6.38;;;4.20;;
61638;SDS011;47544;52.484;4.658;2023-06-26T00:49:55;6.70;;;4.40;;
61638;SDS011;47544;52.484;4.658;2023-06-26T00:50:06;7.05;;;4.78;;
61638;SDS011;47544;52.484;4.658;2023-06-26T00:50:19;7.35;;;5.10;;
61638;SDS011;47544;52.484;4.658;2023-06-26T00:50:30;6.55;;;4.97;;
61638;SDS011;47544;52.484;4.658;2023-06-26T00:50:41;6.93;;;5.05;;
61638;SDS011;47544;52.484;4.658;2023-06-26T00:50:53;6.40;;;4.93;;
61638;SDS011;47544;52.484;4.658;2023-06-26T00:51:04;7.30;;;4.72;;
61638;SDS011;47544;52.484;4.658;2023-06-26T00:51:16;6.97;;;4.18;;
61638;SDS011;47544;52.484;4.658;2023-06-26T00:51:27;8.43;;;4.28;;
61638;SDS011;47544;52.484;4.658;2023-06-26T00:51:39;8.50;;;4.50;;
61638;SDS011;47544;52.484;4.658;2023-06-26T00:51:53;8.50;;;4.78;;
61638;SDS011;47544;52.484;4.658;2023-06-26T00:52:04;7.18;;;4.95;;
61638;SDS011;47544;52.484;4.658;2023-06-26T00:52:15;7.75;;;5.15;;
61638;SDS011;47544;52.484;4.658;2023-06-26T00:52:28;8.57;;;5.30;;
61638;SDS011;47544;52.484;4.658;2023-06-26T00:52:39;8.73;;;5.07;;
61638;SDS011;47544;52.484;4.658;2023-06-26T00:52:50;7.40;;;4.93;;
61638;SDS011;47544;52.484;4.658;2023-06-26T00:53:01;7.20;;;5.03;;
61638;SDS011;47544;52.484;4.658;2023-06-26T00:53:12;7.00;;;5.03;;
61638;SDS011;47544;52.484;4.658;2023-06-26T00:53:25;6.63;;;4.95;;
61638;SDS011;47544;52.484;4.658;2023-06-26T00:53:36;6.88;;;4.75;;
61638;SDS011;47544;52.484;4.658;2023-06-26T00:53:47;7.95;;;4.72;;
61638;SDS011;47544;52.484;4.658;2023-06-26T00:54:01;8.02;;;4.47;;
61638;SDS011;47544;52.484;4.658;2023-06-26T00:54:12;7.45;;;4.20;;
61638;SDS011;47544;52.484;4.658;2023-06-26T00:54:32;6.53;;;4.28;;
61638;SDS011;47544;52.484;4.658;2023-06-26T00:54:43;6.63;;;4.40;;
61638;SDS011;47544;52.484;4.658;2023-06-26T00:54:58;6.35;;;4.05;;
61638;SDS011;47544;52.484;4.658;2023-06-26T00:55:09;7.00;;;4.68;;
61638;SDS011;47544;52.484;4.658;2023-06-26T00:55:20;6.78;;;4.65;;
61638;SDS011;47544;52.484;4.658;2023-06-26T00:55:32;7.05;;;4.90;;
61638;SDS011;47544;52.484;4.658;2023-06-26T00:55:43;7.80;;;4.82;;
61638;SDS011;47544;52.484;4.658;2023-06-26T00:55:55;8.52;;;5.00;;
61638;SDS011;47544;52.484;4.658;2023-06-26T00:56:06;8.35;;;5.22;;
61638;SDS011;47544;52.484;4.658;2023-06-26T00:56:18;8.02;;;5.22;;
61638;SDS011;47544;52.484;4.658;2023-06-26T00:56:30;7.57;;;5.13;;
61638;SDS011;47544;52.484;4.658;2023-06-26T00:56:45;7.20;;;5.10;;
61638;SDS011;47544;52.484;4.658;2023-06-26T00:56:59;7.22;;;4.95;;
61638;SDS011;47544;52.484;4.658;2023-06-26T00:57:10;8.13;;;5.32;;
61638;SDS011;47544;52.484;4.658;2023-06-26T00:57:21;7.50;;;5.10;;
61638;SDS011;47544;52.484;4.658;2023-06-26T00:57:33;7.78;;;5.07;;
61638;SDS011;47544;52.484;4.658;2023-06-26T00:57:44;7.88;;;5.03;;
61638;SDS011;47544;52.484;4.658;2023-06-26T00:57:56;8.40;;;4.88;;
61638;SDS011;47544;52.484;4.658;2023-06-26T00:58:07;8.32;;;4.80;;
61638;SDS011;47544;52.484;4.658;2023-06-26T00:58:20;10.23;;;5.30;;
61638;SDS011;47544;52.484;4.658;2023-06-26T00:58:32;9.45;;;5.38;;
61638;SDS011;47544;52.484;4.658;2023-06-26T00:58:43;7.90;;;5.13;;
61638;SDS011;47544;52.484;4.658;2023-06-26T00:58:55;7.68;;;5.15;;
61638;SDS011;47544;52.484;4.658;2023-06-26T00:59:06;8.75;;;4.85;;
61638;SDS011;47544;52.484;4.658;2023-06-26T00:59:19;9.23;;;4.75;;
61638;SDS011;47544;52.484;4.658;2023-06-26T00:59:30;9.13;;;4.90;;
61638;SDS011;47544;52.484;4.658;2023-06-26T00:59:41;7.95;;;4.50;;
61638;SDS011;47544;52.484;4.658;2023-06-26T00:59:54;8.00;;;4.20;;
61638;SDS011;47544;52.484;4.658;2023-06-26T01:00:06;6.28;;;3.92;;
61638;SDS011;47544;52.484;4.658;2023-06-26T01:00:17;6.88;;;4.65;;
61638;SDS011;47544;52.484;4.658;2023-06-26T01:00:29;8.27;;;5.28;;
61638;SDS011;47544;52.484;4.658;2023-06-26T01:00:40;8.30;;;4.97;;
61638;SDS011;47544;52.484;4.658;2023-06-26T01:00:51;9.45;;;4.97;;
61638;SDS011;47544;52.484;4.658;2023-06-26T01:01:04;8.95;;;4.80;;
61638;SDS011;47544;52.484;4.658;2023-06-26T01:01:19;8.13;;;5.00;;
61638;SDS011;47544;52.484;4.658;2023-06-26T01:01:32;7.82;;;4.90;;
61638;SDS011;47544;52.484;4.658;2023-06-26T01:01:43;7.28;;;4.72;;
61638;SDS011;47544;52.484;4.658;2023-06-26T01:01:56;7.25;;;4.70;;
61638;SDS011;47544;52.484;4.658;2023-06-26T01:02:07;7.50;;;4.70;;
61638;SDS011;47544;52.484;4.658;2023-06-26T01:02:18;7.65;;;4.72;;
61638;SDS011;47544;52.484;4.658;2023-06-26T01:02:31;7.32;;;4.60;;
61638;SDS011;47544;52.484;4.658;2023-06-26T01:02:44;7.13;;;4.50;;
61638;SDS011;47544;52.484;4.658;2023-06-26T01:02:55;7.10;;;4.43;;
61638;SDS011;47544;52.484;4.658;2023-06-26T01:03:09;8.00;;;4.88;;
61638;SDS011;47544;52.484;4.658;2023-06-26T01:03:38;9.07;;;5.60;;
61638;SDS011;47544;52.484;4.658;2023-06-26T01:03:52;9.77;;;5.50;;
61638;SDS011;47544;52.484;4.658;2023-06-26T01:04:07;8.80;;;5.40;;
61638;SDS011;47544;52.484;4.658;2023-06-26T01:04:18;8.55;;;5.03;;
61638;SDS011;47544;52.484;4.658;2023-06-26T01:04:29;8.20;;;4.70;;
61638;SDS011;47544;52.484;4.658;2023-06-26T01:04:43;7.95;;;4.75;;
61638;SDS011;47544;52.484;4.658;2023-06-26T01:04:57;8.77;;;5.07;;
61638;SDS011;47544;52.484;4.658;2023-06-26T01:05:09;8.57;;;4.60;;
61638;SDS011;47544;52.484;4.658;2023-06-26T01:05:32;8.55;;;4.20;;
61638;SDS011;47544;52.484;4.658;2023-06-26T01:06:05;7.45;;;5.05;;
61638;SDS011;47544;52.484;4.658;2023-06-26T01:06:17;7.30;;;5.10;;
61638;SDS011;47544;52.484;4.658;2023-06-26T01:06:29;7.43;;;4.93;;
61638;SDS011;47544;52.484;4.658;2023-06-26T01:06:42;6.28;;;4.00;;
61638;SDS011;47544;52.484;4.658;2023-06-26T01:06:59;8.05;;;4.13;;
61638;SDS011;47544;52.484;4.658;2023-06-26T01:07:10;9.35;;;4.85;;
61638;SDS011;47544;52.484;4.658;2023-06-26T01:07:22;9.88;;;5.15;;
61638;SDS011;47544;52.484;4.658;2023-06-26T01:07:33;9.00;;;5.05;;
61638;SDS011;47544;52.484;4.658;2023-06-26T01:07:47;9.38;;;4.80;;
61638;SDS011;47544;52.484;4.658;2023-06-26T01:07:58;9.00;;;4.60;;
61638;SDS011;47544;52.484;4.658;2023-06-26T01:08:11;8.48;;;4.30;;
61638;SDS011;47544;52.484;4.658;2023-06-26T01:08:23;8.68;;;4.13;;
61638;SDS011;47544;52.484;4.658;2023-06-26T01:08:34;9.25;;;4.20;;
61638;SDS011;47544;52.484;4.658;2023-06-26T01:08:49;9.15;;;4.43;;
61638;SDS011;47544;52.484;4.658;2023-06-26T01:09:16;7.70;;;4.65;;
61638;SDS011;47544;52.484;4.658;2023-06-26T01:09:30;7.13;;;4.60;;
61638;SDS011;47544;52.484;4.658;2023-06-26T01:09:42;6.63;;;3.92;;
61638;SDS011;47544;52.484;4.658;2023-06-26T01:09:54;6.45;;;3.90;;
61638;SDS011;47544;52.484;4.658;2023-06-26T01:10:06;6.20;;;3.70;;
61638;SDS011;47544;52.484;4.658;2023-06-26T01:10:20;7.47;;;3.75;;
61638;SDS011;47544;52.484;4.658;2023-06-26T01:10:33;8.52;;;4.10;;
61638;SDS011;47544;52.484;4.658;2023-06-26T01:10:47;9.25;;;4.95;;
61638;SDS011;47544;52.484;4.658;2023-06-26T01:11:00;8.18;;;4.78;;
61638;SDS011;47544;52.484;4.658;2023-06-26T01:11:11;8.10;;;4.80;;
61638;SDS011;47544;52.484;4.658;2023-06-26T01:11:23;8.60;;;5.00;;
61638;SDS011;47544;52.484;4.658;2023-06-26T01:11:34;9.68;;;5.22;;
61638;SDS011;47544;52.484;4.658;2023-06-26T01:11:45;9.73;;;5.28;;
61638;SDS011;47544;52.484;4.658;2023-06-26T01:11:57;9.00;;;4.78;;
61638;SDS011;47544;52.484;4.658;2023-06-26T01:12:08;7.88;;;4.60;;
61638;SDS011;47544;52.484;4.658;2023-06-26T01:12:19;7.25;;;4.53;;
61638;SDS011;47544;52.484;4.658;2023-06-26T01:12:32;7.40;;;4.93;;
61638;SDS011;47544;52.484;4.658;2023-06-26T01:12:45;8.70;;;5.10;;
61638;SDS011;47544;52.484;4.658;2023-06-26T01:12:56;9.38;;;4.90;;
61638;SDS011;47544;52.484;4.658;2023-06-26T01:13:08;9.35;;;4.63;;
61638;SDS011;47544;52.484;4.658;2023-06-26T01:13:19;9.20;;;4.43;;
61638;SDS011;47544;52.484;4.658;2023-06-26T01:13:31;8.55;;;4.40;;
61638;SDS011;47544;52.484;4.658;2023-06-26T01:13:42;7.60;;;4.30;;
61638;SDS011;47544;52.484;4.658;2023-06-26T01:13:54;7.47;;;4.68;;
61638;SDS011;47544;52.484;4.658;2023-06-26T01:14:08;7.05;;;4.38;;
61638;SDS011;47544;52.484;4.658;2023-06-26T01:14:19;7.50;;;3.97;;
61638;SDS011;47544;52.484;4.658;2023-06-26T01:14:30;7.40;;;3.83;;
61638;SDS011;47544;52.484;4.658;2023-06-26T01:14:43;9.00;;;4.43;;
61638;SDS011;47544;52.484;4.658;2023-06-26T01:14:54;9.75;;;4.90;;
61638;SDS011;47544;52.484;4.658;2023-06-26T01:15:06;9.68;;;5.18;;
61638;SDS011;47544;52.484;4.658;2023-06-26T01:15:18;9.38;;;5.47;;
61638;SDS011;47544;52.484;4.658;2023-06-26T01:15:29;9.90;;;5.28;;
61638;SDS011;47544;52.484;4.658;2023-06-26T01:15:41;9.95;;;5.05;;
61638;SDS011;47544;52.484;4.658;2023-06-26T01:15:52;10.35;;;5.05;;
61638;SDS011;47544;52.484;4.658;2023-06-26T01:16:04;10.75;;;4.95;;
61638;SDS011;47544;52.484;4.658;2023-06-26T01:16:17;10.30;;;5.03;;
61638;SDS011;47544;52.484;4.658;2023-06-26T01:16:30;9.32;;;5.10;;
61638;SDS011;47544;52.484;4.658;2023-06-26T01:16:45;9.25;;;5.32;;
61638;SDS011;47544;52.484;4.658;2023-06-26T01:16:59;10.23;;;5.10;;
61638;SDS011;47544;52.484;4.658;2023-06-26T01:17:12;11.18;;;5.25;;
61638;SDS011;47544;52.484;4.658;2023-06-26T01:17:25;12.07;;;5.80;;
61638;SDS011;47544;52.484;4.658;2023-06-26T01:17:38;12.05;;;5.80;;